createdAt,value
2023-03-29T00:01:50.114Z,0
2023-03-29T00:05:15.514Z,0
2023-03-29T00:08:40.938Z,0
2023-03-29T00:12:06.387Z,0
2023-03-29T00:15:31.849Z,0
2023-03-29T00:18:58.046Z,0
2023-03-29T00:22:23.499Z,0
2023-03-29T00:25:48.963Z,0
2023-03-29T00:29:14.370Z,0
2023-03-29T00:32:39.845Z,0
2023-03-29T00:36:05.289Z,0
2023-03-29T00:39:30.702Z,0
2023-03-29T00:42:56.139Z,0
2023-03-29T00:46:21.605Z,0
2023-03-29T00:49:47.025Z,0
2023-03-29T00:53:12.407Z,0
2023-03-29T00:56:37.809Z,0
2023-03-29T01:00:03.163Z,0
2023-03-29T01:03:28.589Z,0
2023-03-29T01:06:54.166Z,0
2023-03-29T01:10:19.467Z,0
2023-03-29T01:13:44.967Z,0
2023-03-29T01:17:10.408Z,0
2023-03-29T01:20:35.834Z,0
2023-03-29T01:24:01.320Z,0
2023-03-29T01:27:26.737Z,0
2023-03-29T01:30:52.153Z,0
2023-03-29T01:34:17.578Z,0
2023-03-29T01:37:43.056Z,0
2023-03-29T01:41:08.544Z,0
2023-03-29T01:44:34.013Z,0
2023-03-29T01:47:59.463Z,0
2023-03-29T01:51:24.884Z,0
2023-03-29T01:54:50.280Z,0
2023-03-29T01:58:15.726Z,0
2023-03-29T02:01:41.164Z,0
2023-03-29T02:05:06.553Z,0
2023-03-29T02:08:32.028Z,0
2023-03-29T02:11:57.424Z,0
2023-03-29T02:15:22.889Z,0
2023-03-29T02:18:48.343Z,0
2023-03-29T02:22:13.755Z,0
2023-03-29T02:25:39.167Z,0
2023-03-29T02:29:04.633Z,0
2023-03-29T02:32:30.113Z,0
2023-03-29T02:35:55.504Z,0
2023-03-29T02:39:20.898Z,0
2023-03-29T02:42:46.297Z,0
2023-03-29T02:46:11.729Z,0
2023-03-29T02:49:37.145Z,0
2023-03-29T02:53:02.551Z,0
2023-03-29T02:56:27.947Z,0
2023-03-29T02:59:53.386Z,0
2023-03-29T03:03:18.826Z,0
2023-03-29T03:06:44.179Z,0
2023-03-29T03:10:09.591Z,0
2023-03-29T03:13:35.037Z,0
2023-03-29T03:17:02.483Z,0
2023-03-29T03:20:25.933Z,0
2023-03-29T03:23:51.383Z,0
2023-03-29T03:27:16.782Z,0
2023-03-29T03:30:42.209Z,0
2023-03-29T03:34:07.683Z,0
2023-03-29T03:37:33.077Z,0
2023-03-29T03:41:00.520Z,0
2023-03-29T03:44:25.448Z,0
2023-03-29T03:47:51.005Z,0
2023-03-29T03:51:16.318Z,0
2023-03-29T03:54:41.796Z,0
2023-03-29T03:58:07.309Z,0
2023-03-29T04:01:32.715Z,0
2023-03-29T04:04:58.089Z,0
2023-03-29T04:08:23.491Z,0
2023-03-29T04:11:48.868Z,0
2023-03-29T04:15:14.333Z,0
2023-03-29T04:18:39.686Z,0
2023-03-29T04:22:05.008Z,0
2023-03-29T04:25:30.418Z,0
2023-03-29T04:28:55.867Z,0
2023-03-29T04:32:21.725Z,0
2023-03-29T04:35:47.278Z,0
2023-03-29T04:39:12.617Z,0
2023-03-29T04:42:37.967Z,0
2023-03-29T04:46:03.309Z,0
2023-03-29T04:49:28.635Z,0
2023-03-29T04:52:53.902Z,0
2023-03-29T04:56:19.196Z,0
2023-03-29T04:59:44.482Z,0
2023-03-29T05:03:09.838Z,0
2023-03-29T05:06:35.151Z,0
2023-03-29T05:10:00.489Z,0
2023-03-29T05:13:25.892Z,0
2023-03-29T05:16:51.225Z,0
2023-03-29T05:20:16.502Z,0
2023-03-29T05:23:41.749Z,0
2023-03-29T05:27:06.906Z,0
2023-03-29T05:30:32.146Z,0
2023-03-29T05:33:57.345Z,0
2023-03-29T05:37:22.517Z,0
2023-03-29T05:40:47.722Z,0
2023-03-29T05:44:12.920Z,0
2023-03-29T05:47:38.140Z,0
2023-03-29T05:51:03.461Z,0
2023-03-29T05:54:28.483Z,0
2023-03-29T05:57:53.694Z,0
2023-03-29T06:01:18.849Z,0
2023-03-29T06:04:44.063Z,0
2023-03-29T06:08:09.226Z,6
2023-03-29T06:11:34.391Z,6
2023-03-29T06:14:59.601Z,6
2023-03-29T06:18:24.734Z,6
2023-03-29T06:21:49.928Z,6
2023-03-29T06:25:15.097Z,6
2023-03-29T06:28:40.266Z,6
2023-03-29T06:32:05.612Z,6
2023-03-29T06:35:30.630Z,6
2023-03-29T06:38:55.777Z,11
2023-03-29T06:42:21.749Z,11
2023-03-29T06:45:46.140Z,11
2023-03-29T06:49:11.308Z,11
2023-03-29T06:52:36.468Z,11
2023-03-29T06:56:01.589Z,11
2023-03-29T06:59:26.757Z,11
2023-03-29T07:02:51.965Z,11
2023-03-29T07:06:17.100Z,11
2023-03-29T07:09:42.253Z,11
2023-03-29T07:13:07.442Z,17
2023-03-29T07:16:32.764Z,17
2023-03-29T07:19:57.813Z,17
2023-03-29T07:23:22.999Z,17
2023-03-29T07:26:56.382Z,23
2023-03-29T07:30:13.331Z,23
2023-03-29T07:33:38.676Z,17
2023-03-29T07:37:03.668Z,17
2023-03-29T07:40:28.889Z,17
2023-03-29T07:43:54.009Z,17
2023-03-29T07:47:19.193Z,23
2023-03-29T07:50:44.353Z,23
2023-03-29T07:54:09.521Z,23
2023-03-29T07:57:34.707Z,23
2023-03-29T08:01:00.138Z,17
2023-03-29T08:04:25.111Z,17
2023-03-29T08:07:50.164Z,17
2023-03-29T08:11:15.322Z,23
2023-03-29T08:14:40.528Z,23
2023-03-29T08:18:05.676Z,28
2023-03-29T08:21:30.862Z,28
2023-03-29T08:24:56.029Z,28
2023-03-29T08:28:21.197Z,34
2023-03-29T08:31:46.410Z,34
2023-03-29T08:35:11.544Z,34
2023-03-29T08:38:36.700Z,28
2023-03-29T08:42:01.852Z,28
2023-03-29T08:45:27.021Z,34
2023-03-29T08:48:52.191Z,34
2023-03-29T08:52:17.344Z,45
2023-03-29T08:55:42.509Z,34
2023-03-29T08:59:08.373Z,39
2023-03-29T09:02:33.614Z,34
2023-03-29T09:05:58.774Z,34
2023-03-29T09:09:23.903Z,51
2023-03-29T09:12:49.068Z,45
2023-03-29T09:16:14.231Z,39
2023-03-29T09:19:39.376Z,45
2023-03-29T09:23:07.167Z,45
2023-03-29T09:26:32.295Z,45
2023-03-29T09:29:57.455Z,45
2023-03-29T09:33:22.580Z,51
2023-03-29T09:36:47.759Z,56
2023-03-29T09:40:12.959Z,62
2023-03-29T09:43:38.084Z,51
2023-03-29T09:47:03.249Z,51
2023-03-29T09:50:31.250Z,51
2023-03-29T09:53:53.580Z,51
2023-03-29T09:57:18.831Z,51
2023-03-29T10:00:43.937Z,51
2023-03-29T10:04:09.086Z,45
2023-03-29T10:07:34.254Z,45
2023-03-29T10:10:59.484Z,51
2023-03-29T10:14:24.623Z,51
2023-03-29T10:17:49.815Z,45
2023-03-29T10:21:15.163Z,56
2023-03-29T10:24:40.411Z,56
2023-03-29T10:28:05.671Z,51
2023-03-29T10:31:31.040Z,51
2023-03-29T10:34:56.214Z,51
2023-03-29T10:38:21.480Z,51
2023-03-29T10:41:46.694Z,68
2023-03-29T10:45:11.896Z,51
2023-03-29T10:48:37.143Z,51
2023-03-29T10:52:02.331Z,51
2023-03-29T10:55:27.539Z,51
2023-03-29T10:58:52.795Z,51
2023-03-29T11:02:18.028Z,51
2023-03-29T11:05:43.272Z,51
2023-03-29T11:09:08.445Z,51
2023-03-29T11:12:33.664Z,51
2023-03-29T11:15:58.908Z,51
2023-03-29T11:19:24.136Z,51
2023-03-29T11:22:49.374Z,45
2023-03-29T11:26:14.563Z,45
2023-03-29T11:29:39.836Z,45
2023-03-29T11:33:05.072Z,51
2023-03-29T11:36:30.273Z,51
2023-03-29T11:39:55.539Z,51
2023-03-29T11:43:20.760Z,62
2023-03-29T11:46:46.073Z,51
2023-03-29T11:50:11.284Z,73
2023-03-29T11:53:36.497Z,56
2023-03-29T11:57:01.833Z,84
2023-03-29T12:00:27.060Z,68
2023-03-29T12:03:52.362Z,62
2023-03-29T12:07:17.557Z,45
2023-03-29T12:10:42.789Z,45
2023-03-29T12:14:08.060Z,51
2023-03-29T12:17:33.271Z,51
2023-03-29T12:20:58.549Z,45
2023-03-29T12:24:23.690Z,51
2023-03-29T12:27:48.922Z,51
2023-03-29T12:31:14.138Z,51
2023-03-29T12:34:39.324Z,51
2023-03-29T12:38:04.553Z,62
2023-03-29T12:41:29.741Z,45
2023-03-29T12:44:54.973Z,51
2023-03-29T12:48:20.237Z,39
2023-03-29T12:51:45.415Z,39
2023-03-29T12:55:10.656Z,45
2023-03-29T12:58:35.888Z,51
2023-03-29T13:02:01.240Z,34
2023-03-29T13:05:26.710Z,51
2023-03-29T13:08:51.830Z,39
2023-03-29T13:12:17.038Z,34
2023-03-29T13:15:42.338Z,39
2023-03-29T13:19:07.562Z,34
2023-03-29T13:22:32.822Z,34
2023-03-29T13:25:58.064Z,34
2023-03-29T13:29:23.529Z,34
2023-03-29T13:32:48.805Z,34
2023-03-29T13:36:14.135Z,34
2023-03-29T13:39:39.416Z,34
2023-03-29T13:43:04.609Z,34
2023-03-29T13:46:29.906Z,34
2023-03-29T13:49:55.118Z,34
2023-03-29T13:53:20.393Z,28
2023-03-29T13:56:45.722Z,34
2023-03-29T14:00:10.895Z,28
2023-03-29T14:03:36.173Z,34
2023-03-29T14:07:02.303Z,28
2023-03-29T14:10:27.594Z,34
2023-03-29T14:13:53.077Z,28
2023-03-29T14:17:18.280Z,28
2023-03-29T14:20:43.534Z,28
2023-03-29T14:24:08.811Z,23
2023-03-29T14:27:34.052Z,28
2023-03-29T14:30:59.290Z,28
2023-03-29T14:34:24.566Z,28
2023-03-29T14:37:50.106Z,23
2023-03-29T14:41:15.366Z,23
2023-03-29T14:44:40.662Z,28
2023-03-29T14:48:06.507Z,28
2023-03-29T14:51:31.609Z,28
2023-03-29T14:54:56.895Z,28
2023-03-29T14:58:22.149Z,23
2023-03-29T15:01:47.523Z,17
2023-03-29T15:05:12.882Z,17
2023-03-29T15:41:45.128Z,6
2023-03-29T15:45:10.358Z,11
2023-03-29T15:48:35.675Z,11
2023-03-29T15:52:00.937Z,11
2023-03-29T15:55:26.189Z,11
2023-03-29T15:58:51.735Z,11
2023-03-29T16:02:17.194Z,11
2023-03-29T16:05:42.434Z,11
2023-03-29T16:09:07.699Z,11
2023-03-29T16:12:32.954Z,11
2023-03-29T16:15:58.236Z,11
2023-03-29T16:19:23.444Z,11
2023-03-29T16:22:48.703Z,11
2023-03-29T16:26:13.929Z,11
2023-03-29T16:29:39.188Z,6
2023-03-29T16:33:04.591Z,6
2023-03-29T16:36:29.802Z,6
2023-03-29T16:39:55.164Z,6
2023-03-29T16:43:20.282Z,6
2023-03-29T16:46:45.549Z,6
2023-03-29T16:50:10.829Z,6
2023-03-29T16:53:36.013Z,6
2023-03-29T16:57:01.332Z,6
2023-03-29T17:00:26.534Z,0
2023-03-29T17:03:51.840Z,0
2023-03-29T17:07:17.138Z,0
2023-03-29T17:10:42.310Z,0
2023-03-29T17:14:07.556Z,0
2023-03-29T17:17:32.886Z,0
2023-03-29T17:20:58.067Z,0
2023-03-29T17:24:23.375Z,0
2023-03-29T17:27:48.784Z,0
2023-03-29T17:31:14.122Z,0
2023-03-29T17:34:39.418Z,0
2023-03-29T17:38:04.739Z,0
2023-03-29T17:41:30.981Z,0
2023-03-29T17:44:55.402Z,0
2023-03-29T17:48:20.718Z,0
2023-03-29T17:51:46.000Z,0
2023-03-29T17:55:11.313Z,0
2023-03-29T17:58:36.624Z,0
2023-03-29T18:02:01.879Z,0
2023-03-29T18:05:27.141Z,0
2023-03-29T18:08:52.706Z,0
2023-03-29T18:12:17.977Z,0
2023-03-29T18:15:43.258Z,0
2023-03-29T18:19:08.529Z,0
2023-03-29T18:22:33.820Z,0
2023-03-29T18:25:59.091Z,0
2023-03-29T18:29:24.330Z,0
2023-03-29T18:32:49.644Z,0
2023-03-29T18:36:14.940Z,0
2023-03-29T18:39:40.141Z,0
2023-03-29T18:43:05.457Z,0
2023-03-29T18:46:30.743Z,0
2023-03-29T18:49:56.023Z,0
2023-03-29T18:53:21.262Z,0
2023-03-29T18:56:46.526Z,0
2023-03-29T19:00:11.794Z,0
2023-03-29T19:03:37.138Z,0
2023-03-29T19:07:02.374Z,0
2023-03-29T19:10:27.607Z,0
2023-03-29T19:13:52.890Z,0
2023-03-29T19:17:18.174Z,0
2023-03-29T19:20:43.456Z,0
2023-03-29T19:24:08.781Z,0
2023-03-29T19:27:34.022Z,0
2023-03-29T19:30:59.333Z,0
2023-03-29T19:34:25.165Z,0
2023-03-29T19:37:50.427Z,0
2023-03-29T19:41:15.722Z,0
2023-03-29T19:44:41.018Z,0
2023-03-29T19:48:06.272Z,0
2023-03-29T19:51:31.563Z,0
2023-03-29T19:54:56.827Z,0
2023-03-29T19:58:22.108Z,0
2023-03-29T20:01:47.405Z,0
2023-03-29T20:05:12.595Z,0
2023-03-29T20:08:37.855Z,0
2023-03-29T20:12:03.117Z,0
2023-03-29T20:15:28.402Z,0
2023-03-29T20:18:53.646Z,0
2023-03-29T20:22:18.868Z,0
2023-03-29T20:25:44.147Z,0
2023-03-29T20:29:09.422Z,0
2023-03-29T20:32:34.741Z,0
2023-03-29T20:36:00.019Z,0
2023-03-29T20:39:26.011Z,0
2023-03-29T20:42:50.608Z,0
2023-03-29T20:46:15.867Z,0
2023-03-29T20:49:41.156Z,0
2023-03-29T20:53:06.385Z,0
2023-03-29T20:56:31.699Z,0
2023-03-29T20:59:56.948Z,0
2023-03-29T21:03:22.361Z,0
2023-03-29T21:06:47.538Z,0
2023-03-29T21:10:12.761Z,0
2023-03-29T21:13:38.048Z,0
2023-03-29T21:17:03.275Z,0
2023-03-29T21:20:28.495Z,0
2023-03-29T21:23:53.762Z,0
2023-03-29T21:27:18.987Z,0
2023-03-29T21:30:44.265Z,0
2023-03-29T21:34:09.515Z,0
2023-03-29T21:37:34.801Z,0
2023-03-29T21:41:00.114Z,0
2023-03-29T21:44:25.337Z,0
2023-03-29T21:47:50.608Z,0
2023-03-29T21:51:15.816Z,0
2023-03-29T21:54:41.040Z,0
2023-03-29T21:58:06.313Z,0
2023-03-29T22:01:31.554Z,0
2023-03-29T22:04:56.731Z,0
2023-03-29T22:08:21.966Z,0
2023-03-29T22:11:47.201Z,0
2023-03-29T22:15:12.466Z,0
2023-03-29T22:18:37.706Z,0
2023-03-29T22:22:02.933Z,0
2023-03-29T22:25:28.168Z,0
2023-03-29T22:28:53.454Z,0
2023-03-29T22:32:18.812Z,0
2023-03-29T22:35:44.028Z,0
2023-03-29T22:39:09.197Z,0
2023-03-29T22:42:34.457Z,0
2023-03-29T22:45:59.707Z,0
2023-03-29T22:49:24.964Z,0
2023-03-29T22:52:50.175Z,0
2023-03-29T22:56:15.433Z,0
2023-03-29T22:59:40.628Z,0
2023-03-29T23:03:05.897Z,0
2023-03-29T23:06:31.144Z,0
2023-03-29T23:09:56.350Z,0
2023-03-29T23:13:21.629Z,0
2023-03-29T23:16:46.857Z,0
2023-03-29T23:20:12.098Z,0
2023-03-29T23:23:37.344Z,0
2023-03-29T23:27:02.547Z,0
2023-03-29T23:30:27.768Z,0
2023-03-29T23:33:53.049Z,0
2023-03-29T23:37:18.277Z,0
2023-03-29T23:40:43.544Z,0
2023-03-29T23:44:08.722Z,0
2023-03-29T23:47:34.095Z,0
2023-03-29T23:50:59.191Z,0
2023-03-29T23:54:24.436Z,0
2023-03-29T23:57:49.706Z,0
